VOZ488 YBSU-YSSY
Flight info
| Callsign | VOZ488 |
|---|---|
| Flight time | N/A |
| Altitude | 30000 |
| Route | SU Q35 SANEG H91 IGDAM/N0476F310 H652 TESAT |
| Aircraft | B738/M-SDE2E3FGHIRWXY/LB1 |
Departure
| Time | 2026-05-04 04:39 |
|---|---|
| Airport | Sunshine Coast Airport (YBSU) |
Arrival
| Time | N/A |
|---|---|
| Airport | Sydney Kingsford Smith International Airport (YSSY) |
| Time | Latitude | Longitude | Altitude | Speed | Heading |
|---|---|---|---|---|---|
| 2026-05-04 04:20 | -26.60565 | 153.08952 | 23 ft | 0 kts | 284° |
| 2026-05-04 04:29 | -26.60567 | 153.08958 | 20 ft | 4 kts | 284° |
| 2026-05-04 04:29 | -26.60573 | 153.08987 | 21 ft | 4 kts | 284° |
| 2026-05-04 04:29 | -26.60580 | 153.09016 | 20 ft | 4 kts | 274° |
| 2026-05-04 04:30 | -26.60577 | 153.09044 | 20 ft | 4 kts | 242° |
| 2026-05-04 04:30 | -26.60560 | 153.09063 | 20 ft | 3 kts | 196° |
| 2026-05-04 04:30 | -26.60554 | 153.09065 | 20 ft | 0 kts | 194° |
| 2026-05-04 04:32 | -26.60555 | 153.09064 | 20 ft | 1 kts | 207° |
| 2026-05-04 04:33 | -26.60551 | 153.09054 | 20 ft | 3 kts | 312° |
| 2026-05-04 04:33 | -26.60525 | 153.09073 | 22 ft | 8 kts | 57° |
| 2026-05-04 04:33 | -26.60478 | 153.09140 | 20 ft | 13 kts | 38° |
| 2026-05-04 04:33 | -26.60377 | 153.09175 | 20 ft | 18 kts | 12° |
| 2026-05-04 04:34 | -26.60254 | 153.09108 | 21 ft | 24 kts | 324° |
| 2026-05-04 04:34 | -26.60103 | 153.08982 | 20 ft | 30 kts | 323° |
| 2026-05-04 04:34 | -26.59920 | 153.08831 | 21 ft | 36 kts | 324° |
| 2026-05-04 04:34 | -26.59709 | 153.08651 | 23 ft | 41 kts | 322° |
| 2026-05-04 04:35 | -26.59469 | 153.08445 | 20 ft | 46 kts | 323° |
| 2026-05-04 04:35 | -26.59199 | 153.08220 | 20 ft | 50 kts | 322° |
| 2026-05-04 04:35 | -26.58912 | 153.07976 | 24 ft | 51 kts | 323° |
| 2026-05-04 04:35 | -26.58679 | 153.07773 | 22 ft | 42 kts | 322° |
| 2026-05-04 04:36 | -26.58473 | 153.07591 | 21 ft | 30 kts | 309° |
| 2026-05-04 04:36 | -26.58380 | 153.07438 | 21 ft | 11 kts | 344° |
| 2026-05-04 04:36 | -26.58348 | 153.07455 | 21 ft | 5 kts | 43° |
| 2026-05-04 04:36 | -26.58347 | 153.07482 | 20 ft | 0 kts | 132° |
| 2026-05-04 04:37 | -26.58348 | 153.07483 | 20 ft | 1 kts | 132° |
| 2026-05-04 04:38 | -26.58403 | 153.07537 | 20 ft | 33 kts | 141° |
| 2026-05-04 04:38 | -26.58760 | 153.07843 | 23 ft | 95 kts | 142° |
| 2026-05-04 04:38 | -26.59430 | 153.08413 | 20 ft | 145 kts | 142° |
| 2026-05-04 04:38 | -26.60305 | 153.09179 | 216 ft | 169 kts | 141° |
| 2026-05-04 04:39 | -26.61236 | 153.10004 | 826 ft | 170 kts | 141° |
| 2026-05-04 04:39 | -26.62181 | 153.10793 | 1566 ft | 167 kts | 142° |
| 2026-05-04 04:39 | -26.63135 | 153.11566 | 2126 ft | 173 kts | 143° |
| 2026-05-04 04:39 | -26.64116 | 153.12387 | 2627 ft | 182 kts | 138° |
| 2026-05-04 04:40 | -26.65038 | 153.13471 | 2838 ft | 203 kts | 130° |
| 2026-05-04 04:40 | -26.65989 | 153.14710 | 3001 ft | 221 kts | 130° |
| 2026-05-04 04:40 | -26.67016 | 153.16055 | 3278 ft | 232 kts | 130° |
| 2026-05-04 04:40 | -26.68108 | 153.17484 | 3474 ft | 249 kts | 130° |
| 2026-05-04 04:41 | -26.69263 | 153.18990 | 3867 ft | 259 kts | 130° |
| 2026-05-04 04:41 | -26.70439 | 153.20520 | 4540 ft | 261 kts | 130° |
| 2026-05-04 04:41 | -26.71631 | 153.22070 | 5207 ft | 263 kts | 130° |
| 2026-05-04 04:41 | -26.72825 | 153.23619 | 5867 ft | 265 kts | 130° |
| 2026-05-04 04:42 | -26.74027 | 153.25177 | 6486 ft | 268 kts | 130° |
| 2026-05-04 04:42 | -26.75245 | 153.26758 | 7164 ft | 270 kts | 129° |
| 2026-05-04 04:42 | -26.76483 | 153.28364 | 7744 ft | 276 kts | 130° |
| 2026-05-04 04:42 | -26.77752 | 153.30009 | 8344 ft | 281 kts | 130° |
| 2026-05-04 04:43 | -26.79042 | 153.31684 | 8964 ft | 287 kts | 130° |
| 2026-05-04 04:43 | -26.80358 | 153.33390 | 9610 ft | 292 kts | 130° |
| 2026-05-04 04:43 | -26.81737 | 153.35078 | 10222 ft | 297 kts | 140° |
| 2026-05-04 04:43 | -26.83615 | 153.36153 | 10446 ft | 316 kts | 169° |
| 2026-05-04 04:44 | -26.85873 | 153.36289 | 10622 ft | 336 kts | 181° |
| 2026-05-04 04:44 | -26.88277 | 153.36212 | 10765 ft | 355 kts | 183° |
| 2026-05-04 04:44 | -26.90812 | 153.36098 | 10893 ft | 374 kts | 183° |
| 2026-05-04 04:44 | -26.93467 | 153.35980 | 11011 ft | 390 kts | 183° |
| 2026-05-04 04:45 | -26.96229 | 153.35868 | 11172 ft | 403 kts | 182° |
| 2026-05-04 04:45 | -26.99062 | 153.35766 | 11514 ft | 409 kts | 182° |
| 2026-05-04 04:45 | -27.01913 | 153.35672 | 12002 ft | 410 kts | 182° |
| 2026-05-04 04:47 | -27.19409 | 153.35139 | 14541 ft | 430 kts | 184° |
| 2026-05-04 04:47 | -27.22408 | 153.35048 | 14952 ft | 432 kts | 184° |
| 2026-05-04 04:47 | -27.25425 | 153.34956 | 15360 ft | 435 kts | 184° |
| 2026-05-04 04:47 | -27.28461 | 153.34863 | 15757 ft | 438 kts | 184° |
| 2026-05-04 04:48 | -27.31518 | 153.34770 | 16147 ft | 441 kts | 184° |
| 2026-05-04 04:49 | -27.43019 | 153.30763 | 17689 ft | 437 kts | 215° |
| 2026-05-04 04:49 | -27.45616 | 153.28970 | 18058 ft | 440 kts | 215° |
| 2026-05-04 04:49 | -27.48232 | 153.27163 | 18414 ft | 442 kts | 215° |
| 2026-05-04 04:49 | -27.50833 | 153.25377 | 18728 ft | 444 kts | 215° |
| 2026-05-04 04:50 | -27.53479 | 153.23575 | 19068 ft | 445 kts | 215° |
| 2026-05-04 04:50 | -27.56135 | 153.21774 | 19401 ft | 446 kts | 215° |
| 2026-05-04 04:50 | -27.58802 | 153.19972 | 19722 ft | 448 kts | 215° |
| 2026-05-04 04:50 | -27.61479 | 153.18164 | 20032 ft | 449 kts | 215° |
| 2026-05-04 04:51 | -27.64167 | 153.16348 | 20345 ft | 451 kts | 215° |
| 2026-05-04 04:51 | -27.66862 | 153.14526 | 20651 ft | 452 kts | 215° |
| 2026-05-04 04:51 | -27.69574 | 153.12691 | 20957 ft | 454 kts | 215° |
| 2026-05-04 04:51 | -27.72293 | 153.10849 | 21220 ft | 456 kts | 216° |
| 2026-05-04 04:52 | -27.74987 | 153.09023 | 21483 ft | 458 kts | 216° |
| 2026-05-04 04:52 | -27.77717 | 153.07172 | 21770 ft | 459 kts | 216° |
| 2026-05-04 04:52 | -27.80462 | 153.05311 | 22053 ft | 460 kts | 215° |
| 2026-05-04 04:52 | -27.83302 | 153.03594 | 22301 ft | 467 kts | 208° |
| 2026-05-04 04:53 | -27.86339 | 153.02236 | 22570 ft | 470 kts | 205° |
| 2026-05-04 04:53 | -27.89418 | 153.00956 | 22852 ft | 472 kts | 205° |
| 2026-05-04 04:53 | -27.92503 | 152.99674 | 23101 ft | 473 kts | 205° |
| 2026-05-04 04:53 | -27.95592 | 152.98365 | 23355 ft | 474 kts | 206° |
| 2026-05-04 04:54 | -27.98681 | 152.97029 | 23587 ft | 476 kts | 206° |
| 2026-05-04 04:54 | -28.01772 | 152.95676 | 23780 ft | 477 kts | 206° |
| 2026-05-04 04:54 | -28.04872 | 152.94313 | 23975 ft | 478 kts | 206° |